createdAt,value
2023-05-20T00:00:49.671Z,51.30
2023-05-20T00:03:17.700Z,51.30
2023-05-20T00:05:45.061Z,51.30
2023-05-20T00:08:12.544Z,51.30
2023-05-20T00:10:40.015Z,51.20
2023-05-20T00:13:07.735Z,51.20
2023-05-20T00:15:36.619Z,51.10
2023-05-20T00:18:04.503Z,51.50
2023-05-20T00:20:32.487Z,51.10
2023-05-20T00:22:59.689Z,51.10
2023-05-20T00:25:26.934Z,51.20
2023-05-20T00:27:54.020Z,51.10
2023-05-20T00:30:21.130Z,51.10
2023-05-20T00:32:48.327Z,51.10
2023-05-20T00:35:15.483Z,51.10
2023-05-20T00:37:43.284Z,51.20
2023-05-20T00:40:11.019Z,51.20
2023-05-20T00:42:38.889Z,51.20
2023-05-20T00:45:06.637Z,51.20
2023-05-20T00:47:36.680Z,51.20
2023-05-20T00:50:04.760Z,51.20
2023-05-20T00:52:32.904Z,51.20
2023-05-20T00:55:01.163Z,51.20
2023-05-20T00:57:28.334Z,51.30
2023-05-20T00:59:55.847Z,51.20
2023-05-20T01:02:24.979Z,51.20
2023-05-20T01:04:52.730Z,51.20
2023-05-20T01:07:20.220Z,51.20
2023-05-20T01:09:47.521Z,51.20
2023-05-20T01:12:29.715Z,51.20
2023-05-20T01:15:01.625Z,51.20
2023-05-20T01:17:33.285Z,51.20
2023-05-20T01:20:01.778Z,51.20
2023-05-20T01:22:30.139Z,51.30
2023-05-20T01:24:57.326Z,51.30
2023-05-20T01:27:24.594Z,51.30
2023-05-20T01:29:53.045Z,51.30
2023-05-20T01:32:23.291Z,51.30
2023-05-20T01:34:52.395Z,51.30
2023-05-20T01:37:21.439Z,51.30
2023-05-20T01:39:51.051Z,51.40
2023-05-20T01:42:19.043Z,51.40
2023-05-20T01:44:46.399Z,51.40
2023-05-20T01:47:13.712Z,51.40
2023-05-20T01:49:41.600Z,51.50
2023-05-20T01:52:08.825Z,51.50
2023-05-20T01:54:35.924Z,51.50
2023-05-20T01:57:03.201Z,51.50
2023-05-20T01:59:30.355Z,51.50
2023-05-20T02:01:57.510Z,51.50
2023-05-20T02:04:24.561Z,51.50
2023-05-20T02:06:51.748Z,51.50
2023-05-20T02:09:19.116Z,51.50
2023-05-20T02:11:46.207Z,51.40
2023-05-20T02:14:13.378Z,51.40
2023-05-20T02:16:41.445Z,51.30
2023-05-20T02:19:13.052Z,51.30
2023-05-20T02:21:41.841Z,51.30
2023-05-20T02:24:09.025Z,51.30
2023-05-20T02:26:36.393Z,51.20
2023-05-20T02:29:03.641Z,51.20
2023-05-20T02:31:30.750Z,51.20
2023-05-20T02:33:57.897Z,51.20
2023-05-20T02:36:25.052Z,51.20
2023-05-20T02:38:54.838Z,51.30
2023-05-20T02:41:21.901Z,51.30
2023-05-20T02:43:49.169Z,51.30
2023-05-20T02:46:18.790Z,51.30
2023-05-20T02:48:46.026Z,51.30
2023-05-20T02:51:13.128Z,51.30
2023-05-20T02:53:40.204Z,51.30
2023-05-20T02:56:08.817Z,51.20
2023-05-20T02:58:35.995Z,51.30
2023-05-20T03:01:03.581Z,51.30
2023-05-20T03:03:31.008Z,51.30
2023-05-20T03:05:58.069Z,51.30
2023-05-20T03:08:25.404Z,51.30
2023-05-20T03:10:52.454Z,51.20
2023-05-20T03:13:19.477Z,51.30
2023-05-20T03:15:46.657Z,51.30
2023-05-20T03:18:14.023Z,51.30
2023-05-20T03:20:41.830Z,51.20
2023-05-20T03:23:09.872Z,51.30
2023-05-20T03:25:38.183Z,51.30
2023-05-20T03:28:06.869Z,51.20
2023-05-20T03:30:34.089Z,51.30
2023-05-20T03:35:30.203Z,51.20
2023-05-20T03:37:57.344Z,51.20
2023-05-20T03:40:24.588Z,51.10
2023-05-20T03:42:52.295Z,51.20
2023-05-20T03:45:19.556Z,51.20
2023-05-20T03:47:46.665Z,51.20
2023-05-20T03:50:13.762Z,51.20
2023-05-20T03:52:41.171Z,51.20
2023-05-20T03:55:09.029Z,51.20
2023-05-20T03:57:36.780Z,51.20
2023-05-20T04:00:12.305Z,51.20
2023-05-20T04:02:39.532Z,51.10
2023-05-20T04:05:09.104Z,51.10
2023-05-20T04:07:36.702Z,51.70
2023-05-20T04:10:05.061Z,51.00
2023-05-20T04:12:32.888Z,50.90
2023-05-20T04:15:03.609Z,50.80
2023-05-20T04:17:31.479Z,50.70
2023-05-20T04:20:00.139Z,50.60
2023-05-20T04:22:27.943Z,50.60
2023-05-20T04:24:56.624Z,50.60
2023-05-20T04:27:23.957Z,50.50
2023-05-20T04:29:50.992Z,50.40
2023-05-20T04:32:19.486Z,50.30
2023-05-20T04:34:47.194Z,50.30
2023-05-20T04:37:14.452Z,50.20
2023-05-20T04:39:43.710Z,50.10
2023-05-20T04:42:10.914Z,50.10
2023-05-20T04:44:38.171Z,50.00
2023-05-20T04:47:08.138Z,50.00
2023-05-20T04:49:35.570Z,49.90
2023-05-20T04:52:02.929Z,49.90
2023-05-20T04:54:30.117Z,49.80
2023-05-20T04:56:57.761Z,49.80
2023-05-20T04:59:25.197Z,49.80
2023-05-20T05:01:52.273Z,49.70
2023-05-20T05:04:19.547Z,49.70
2023-05-20T05:06:48.914Z,49.60
2023-05-20T05:09:16.028Z,49.60
2023-05-20T05:11:43.088Z,49.50
2023-05-20T05:14:10.161Z,49.50
2023-05-20T05:16:37.304Z,49.60
2023-05-20T05:19:04.454Z,49.50
2023-05-20T05:21:31.792Z,49.50
2023-05-20T05:23:58.858Z,49.40
2023-05-20T05:26:26.762Z,49.40
2023-05-20T05:28:55.516Z,49.50
2023-05-20T05:31:22.556Z,49.40
2023-05-20T05:33:49.707Z,49.40
2023-05-20T05:36:20.251Z,49.40
2023-05-20T05:38:47.369Z,49.30
2023-05-20T05:41:14.472Z,49.20
2023-05-20T05:43:41.595Z,49.30
2023-05-20T05:46:09.830Z,49.20
2023-05-20T05:48:37.433Z,49.20
2023-05-20T05:51:05.084Z,49.20
2023-05-20T05:53:32.158Z,49.20
2023-05-20T05:55:59.190Z,49.20
2023-05-20T05:58:26.246Z,49.10
2023-05-20T06:00:55.065Z,49.10
2023-05-20T06:03:22.369Z,49.00
2023-05-20T06:05:49.880Z,49.00
2023-05-20T06:08:16.922Z,48.90
2023-05-20T06:10:49.300Z,48.90
2023-05-20T06:13:16.853Z,49.00
2023-05-20T06:15:46.179Z,48.90
2023-05-20T06:18:13.534Z,49.00
2023-05-20T06:20:41.103Z,48.90
2023-05-20T06:23:08.126Z,48.90
2023-05-20T06:25:35.350Z,49.00
2023-05-20T06:28:02.548Z,48.90
2023-05-20T06:30:29.642Z,49.00
2023-05-20T06:32:56.796Z,49.00
2023-05-20T06:35:23.876Z,49.00
2023-05-20T06:37:50.962Z,49.00
2023-05-20T06:40:18.128Z,49.00
2023-05-20T06:42:45.248Z,49.00
2023-05-20T06:45:12.383Z,49.00
2023-05-20T06:47:39.483Z,49.00
2023-05-20T06:50:06.906Z,49.10
2023-05-20T06:52:33.926Z,49.00
2023-05-20T06:55:00.958Z,49.10
2023-05-20T06:57:28.018Z,49.00
2023-05-20T06:59:56.100Z,49.00
2023-05-20T07:02:23.601Z,49.00
2023-05-20T07:04:50.767Z,49.00
2023-05-20T07:07:18.162Z,49.00
2023-05-20T07:09:45.881Z,49.00
2023-05-20T07:12:13.044Z,49.00
2023-05-20T07:14:40.129Z,49.10
2023-05-20T07:17:07.227Z,49.10
2023-05-20T07:19:34.465Z,49.10
2023-05-20T07:22:01.589Z,49.10
2023-05-20T07:24:28.743Z,49.10
2023-05-20T07:26:55.989Z,49.20
2023-05-20T07:29:23.060Z,49.20
2023-05-20T07:31:50.203Z,49.30
2023-05-20T07:34:17.287Z,49.20
2023-05-20T07:36:44.973Z,49.20
2023-05-20T07:39:14.998Z,49.20
2023-05-20T07:41:42.228Z,49.30
2023-05-20T07:44:11.398Z,49.20
2023-05-20T07:46:39.128Z,49.20
2023-05-20T07:49:06.261Z,49.70
2023-05-20T07:51:33.360Z,49.20
2023-05-20T07:54:00.568Z,49.10
2023-05-20T07:56:28.450Z,49.10
2023-05-20T07:58:58.613Z,49.20
2023-05-20T08:01:26.706Z,49.10
2023-05-20T08:03:54.300Z,49.10
2023-05-20T08:06:21.693Z,49.10
2023-05-20T08:08:48.754Z,49.10
2023-05-20T08:11:15.941Z,49.20
2023-05-20T08:13:43.046Z,49.20
2023-05-20T08:16:10.227Z,49.20
2023-05-20T08:18:38.041Z,49.30
2023-05-20T08:21:08.115Z,49.30
2023-05-20T08:23:38.758Z,49.30
2023-05-20T08:26:07.821Z,49.20
2023-05-20T08:28:37.256Z,49.20
2023-05-20T08:31:04.890Z,49.20
2023-05-20T08:33:32.166Z,49.20
2023-05-20T08:35:59.246Z,49.20
2023-05-20T08:38:26.413Z,49.30
2023-05-20T08:40:56.499Z,49.30
2023-05-20T08:43:24.697Z,49.20
2023-05-20T08:45:52.849Z,49.20
2023-05-20T08:48:22.873Z,49.80
2023-05-20T08:50:52.268Z,49.20
2023-05-20T08:53:22.169Z,49.20
2023-05-20T08:56:00.756Z,49.20
2023-05-20T08:58:33.015Z,49.10
2023-05-20T09:01:00.417Z,49.10
2023-05-20T09:03:27.643Z,49.10
2023-05-20T09:06:03.840Z,49.10
2023-05-20T09:08:31.621Z,49.20
2023-05-20T09:10:58.702Z,49.10
2023-05-20T09:13:27.310Z,49.10
2023-05-20T09:15:54.398Z,49.00
2023-05-20T09:18:21.576Z,49.10
2023-05-20T09:20:55.847Z,49.10
2023-05-20T09:23:22.936Z,49.10
2023-05-20T09:25:52.170Z,49.10
2023-05-20T09:28:27.741Z,49.10
2023-05-20T09:31:02.283Z,49.10
2023-05-20T09:33:30.490Z,49.10
2023-05-20T09:36:05.599Z,49.10
2023-05-20T09:38:39.109Z,49.10
2023-05-20T09:41:14.060Z,49.00
2023-05-20T09:43:42.101Z,49.00
2023-05-20T09:46:10.015Z,49.50
2023-05-20T09:48:37.772Z,49.00
2023-05-20T09:51:06.468Z,48.90
2023-05-20T09:53:33.865Z,49.00
2023-05-20T09:56:01.326Z,48.90
2023-05-20T09:58:30.218Z,48.90
2023-05-20T10:00:57.584Z,48.90
2023-05-20T10:03:28.378Z,48.90
2023-05-20T10:06:25.818Z,48.90
2023-05-20T10:09:19.326Z,48.90
2023-05-20T10:12:26.188Z,48.80
2023-05-20T10:15:24.008Z,48.80
2023-05-20T10:18:30.807Z,48.80
2023-05-20T10:20:57.870Z,48.80
2023-05-20T10:23:28.970Z,48.80
2023-05-20T10:25:58.840Z,48.80
2023-05-20T10:28:32.486Z,48.80
2023-05-20T10:31:00.734Z,48.80
2023-05-20T10:33:28.689Z,48.80
2023-05-20T10:35:59.537Z,48.80
2023-05-20T10:38:26.559Z,48.80
2023-05-20T10:40:53.828Z,48.80
2023-05-20T10:43:28.910Z,48.80
2023-05-20T10:45:57.828Z,48.80
2023-05-20T10:48:31.006Z,48.90
2023-05-20T10:51:00.052Z,48.90
2023-05-20T10:53:34.204Z,48.80
2023-05-20T10:56:01.716Z,48.80
2023-05-20T10:58:36.501Z,48.70
2023-05-20T11:01:03.756Z,48.70
2023-05-20T11:03:31.986Z,48.70
2023-05-20T11:05:59.167Z,48.60
2023-05-20T11:08:33.955Z,48.60
2023-05-20T11:11:02.276Z,48.60
2023-05-20T11:13:29.437Z,48.60
2023-05-20T11:15:56.744Z,48.50
2023-05-20T11:18:23.846Z,48.50
2023-05-20T11:20:51.283Z,48.40
2023-05-20T11:23:18.438Z,48.40
2023-05-20T11:25:45.490Z,48.30
2023-05-20T11:28:15.770Z,48.20
2023-05-20T11:30:43.740Z,48.20
2023-05-20T11:33:13.688Z,48.10
2023-05-20T11:35:54.654Z,48.10
2023-05-20T11:38:22.021Z,48.10
2023-05-20T11:40:54.799Z,48.00
2023-05-20T11:43:23.608Z,47.90
2023-05-20T11:46:01.252Z,47.90
2023-05-20T11:48:28.492Z,47.90
2023-05-20T11:50:56.665Z,47.80
2023-05-20T11:53:24.782Z,47.70
2023-05-20T11:55:55.093Z,47.70
2023-05-20T11:58:23.984Z,47.60
2023-05-20T12:00:55.172Z,47.60
2023-05-20T12:03:29.454Z,47.60
2023-05-20T12:05:56.748Z,47.50
2023-05-20T12:08:23.893Z,47.50
2023-05-20T12:10:51.109Z,47.50
2023-05-20T12:13:19.546Z,47.50
2023-05-20T12:15:46.826Z,47.50
2023-05-20T12:18:13.884Z,47.50
2023-05-20T12:20:41.037Z,47.50
2023-05-20T12:23:08.124Z,47.50
2023-05-20T12:25:35.188Z,47.40
2023-05-20T12:28:03.051Z,47.50
2023-05-20T12:30:30.149Z,47.40
2023-05-20T12:32:57.412Z,47.50
2023-05-20T12:35:39.292Z,47.50
2023-05-20T12:38:07.340Z,47.50
2023-05-20T12:40:35.612Z,47.50
2023-05-20T12:43:04.570Z,47.50
2023-05-20T12:45:31.922Z,47.50
2023-05-20T12:47:59.453Z,47.50
2023-05-20T12:50:28.004Z,47.40
2023-05-20T12:52:55.169Z,47.40
2023-05-20T12:55:22.318Z,47.40
2023-05-20T12:57:50.611Z,47.40
2023-05-20T13:00:18.045Z,47.30
2023-05-20T13:02:45.304Z,47.30
2023-05-20T13:05:13.365Z,47.40
2023-05-20T13:07:40.629Z,48.00
2023-05-20T13:10:08.773Z,47.40
2023-05-20T13:12:36.139Z,47.50
2023-05-20T13:15:04.409Z,47.50
2023-05-20T13:17:32.109Z,47.50
2023-05-20T13:19:59.497Z,47.60
2023-05-20T13:22:26.765Z,47.50
2023-05-20T13:24:53.857Z,47.40
2023-05-20T13:27:21.009Z,47.40
2023-05-20T13:29:48.050Z,47.40
2023-05-20T13:32:15.192Z,47.40
2023-05-20T13:34:42.384Z,47.40
2023-05-20T13:37:09.504Z,47.40
2023-05-20T13:39:36.882Z,47.40
2023-05-20T13:42:04.499Z,47.40
2023-05-20T13:44:32.720Z,47.30
2023-05-20T13:47:00.138Z,47.40
2023-05-20T13:49:27.272Z,47.30
2023-05-20T13:51:54.312Z,47.30
2023-05-20T13:54:21.976Z,47.30
2023-05-20T13:56:49.403Z,47.20
2023-05-20T13:59:16.693Z,47.20
2023-05-20T14:01:45.684Z,47.20
2023-05-20T14:04:13.410Z,47.10
2023-05-20T14:06:40.924Z,47.10
2023-05-20T14:09:09.450Z,47.10
2023-05-20T14:11:36.905Z,47.10
2023-05-20T14:14:03.992Z,47.00
2023-05-20T14:16:32.062Z,47.00
2023-05-20T14:18:59.470Z,46.90
2023-05-20T14:21:26.584Z,46.90
2023-05-20T14:23:53.631Z,46.80
2023-05-20T14:26:21.632Z,46.70
2023-05-20T14:28:48.759Z,46.80
2023-05-20T14:31:16.095Z,46.80
2023-05-20T14:33:43.269Z,46.80
2023-05-20T14:36:11.390Z,46.80
2023-05-20T14:38:38.654Z,46.80
2023-05-20T14:41:05.832Z,46.80
2023-05-20T14:43:33.133Z,46.80
2023-05-20T14:46:00.562Z,46.80
2023-05-20T14:48:27.590Z,46.80
2023-05-20T14:50:54.718Z,46.80
2023-05-20T14:53:23.618Z,46.80
2023-05-20T14:55:50.887Z,46.80
2023-05-20T14:58:18.011Z,46.70
2023-05-20T15:00:45.085Z,46.70
2023-05-20T15:03:12.246Z,46.70
2023-05-20T15:05:39.398Z,46.70
2023-05-20T15:08:06.493Z,46.70
2023-05-20T15:10:33.790Z,46.70
2023-05-20T15:13:01.153Z,46.60
2023-05-20T15:15:28.229Z,46.60
2023-05-20T15:17:55.646Z,46.60
2023-05-20T15:20:22.840Z,46.60
2023-05-20T15:22:49.931Z,46.50
2023-05-20T15:25:17.057Z,46.50
2023-05-20T15:27:44.092Z,46.40
2023-05-20T15:30:11.657Z,46.30
2023-05-20T15:32:40.082Z,46.40
2023-05-20T15:35:07.685Z,46.30
2023-05-20T15:37:34.915Z,46.20
2023-05-20T15:40:02.185Z,46.30
2023-05-20T15:42:29.328Z,46.20
2023-05-20T15:44:56.357Z,46.20
2023-05-20T15:47:23.501Z,46.20
2023-05-20T15:49:50.886Z,46.10
2023-05-20T15:52:17.959Z,46.00
2023-05-20T15:54:45.021Z,46.00
2023-05-20T15:57:12.064Z,46.00
2023-05-20T15:59:39.209Z,45.90
2023-05-20T16:02:06.859Z,45.80
2023-05-20T16:04:34.064Z,45.80
2023-05-20T16:07:01.406Z,45.80
2023-05-20T16:09:28.492Z,45.80
2023-05-20T16:11:56.396Z,45.80
2023-05-20T16:14:23.586Z,45.80
2023-05-20T16:16:50.770Z,45.80
2023-05-20T16:19:17.917Z,45.80
2023-05-20T16:21:45.214Z,45.80
2023-05-20T16:24:12.564Z,45.80
2023-05-20T16:26:39.626Z,45.70
2023-05-20T16:29:06.758Z,45.70
2023-05-20T16:31:33.918Z,45.70
2023-05-20T16:34:03.194Z,45.70
2023-05-20T16:36:30.259Z,45.80
2023-05-20T16:38:57.283Z,45.80
2023-05-20T16:41:24.398Z,45.90
2023-05-20T16:43:51.574Z,45.90
2023-05-20T16:46:18.892Z,45.90
2023-05-20T16:48:46.049Z,45.80
2023-05-20T16:51:13.222Z,45.70
2023-05-20T16:53:40.318Z,45.70
2023-05-20T16:56:08.402Z,45.70
2023-05-20T16:58:35.866Z,46.10
2023-05-20T17:01:02.936Z,45.50
2023-05-20T17:03:30.065Z,45.50
2023-05-20T17:05:57.352Z,45.50
2023-05-20T17:08:24.428Z,45.40
2023-05-20T17:10:53.965Z,45.40
2023-05-20T17:13:21.632Z,45.40
2023-05-20T17:15:48.747Z,45.40
2023-05-20T17:18:16.090Z,45.50
2023-05-20T17:20:43.246Z,45.50
2023-05-20T17:23:10.446Z,45.50
2023-05-20T17:25:37.510Z,45.50
2023-05-20T17:28:04.782Z,45.70
2023-05-20T17:30:32.085Z,45.70
2023-05-20T17:32:59.326Z,45.70
2023-05-20T17:35:26.559Z,45.80
2023-05-20T17:37:53.697Z,45.90
2023-05-20T17:40:21.078Z,45.90
2023-05-20T17:42:51.163Z,46.00
2023-05-20T17:45:18.098Z,46.10
2023-05-20T17:47:45.242Z,46.20
2023-05-20T17:50:12.497Z,46.40
2023-05-20T17:52:39.675Z,46.50
2023-05-20T17:55:07.155Z,46.60
2023-05-20T17:57:34.494Z,46.80
2023-05-20T18:00:02.383Z,46.90
2023-05-20T18:02:29.558Z,47.00
2023-05-20T18:04:56.713Z,47.10
2023-05-20T18:07:24.026Z,47.20
2023-05-20T18:09:51.553Z,47.30
2023-05-20T18:12:18.626Z,47.50
2023-05-20T18:14:45.743Z,47.50
2023-05-20T18:17:12.880Z,47.60
2023-05-20T18:19:39.938Z,47.60
2023-05-20T18:22:07.426Z,47.70
2023-05-20T18:24:34.605Z,47.80
2023-05-20T18:27:01.717Z,47.90
2023-05-20T18:29:28.898Z,48.00
2023-05-20T18:31:56.092Z,48.00
2023-05-20T18:34:23.257Z,48.10
2023-05-20T18:36:50.395Z,48.20
2023-05-20T18:39:20.712Z,48.20
2023-05-20T18:41:48.538Z,48.30
2023-05-20T18:44:18.160Z,48.40
2023-05-20T18:46:45.655Z,48.40
2023-05-20T18:49:12.699Z,48.40
2023-05-20T18:51:40.489Z,48.50
2023-05-20T18:54:07.881Z,48.50
2023-05-20T18:56:35.831Z,48.60
2023-05-20T18:59:03.108Z,48.60
2023-05-20T19:01:30.464Z,48.70
2023-05-20T19:03:57.643Z,48.80
2023-05-20T19:06:24.777Z,48.80
2023-05-20T19:08:51.987Z,48.80
2023-05-20T19:11:19.195Z,48.90
2023-05-20T19:13:46.479Z,48.80
2023-05-20T19:16:13.843Z,48.90
2023-05-20T19:18:41.055Z,49.00
2023-05-20T19:21:08.167Z,49.00
2023-05-20T19:23:35.265Z,49.10
2023-05-20T19:26:02.512Z,49.10
2023-05-20T19:28:29.577Z,49.10
2023-05-20T19:30:56.748Z,49.20
2023-05-20T19:33:23.814Z,49.20
2023-05-20T19:35:51.084Z,49.20
2023-05-20T19:38:18.425Z,49.30
2023-05-20T19:40:45.714Z,49.30
2023-05-20T19:43:12.937Z,49.30
2023-05-20T19:45:40.267Z,49.30
2023-05-20T19:48:07.900Z,49.30
2023-05-20T19:50:35.043Z,49.30
2023-05-20T19:53:06.397Z,49.30
2023-05-20T19:55:36.425Z,49.40
2023-05-20T19:58:03.529Z,49.50
2023-05-20T20:00:30.822Z,49.40
2023-05-20T20:02:58.737Z,49.50
2023-05-20T20:05:29.283Z,49.50
2023-05-20T20:07:56.788Z,49.50
2023-05-20T20:10:23.825Z,49.60
2023-05-20T20:12:51.379Z,49.60
2023-05-20T20:15:20.601Z,49.60
2023-05-20T20:17:52.259Z,49.60
2023-05-20T20:20:19.869Z,49.60
2023-05-20T20:22:47.018Z,49.60
2023-05-20T20:25:14.101Z,49.70
2023-05-20T20:27:44.158Z,49.70
2023-05-20T20:30:13.534Z,49.70
2023-05-20T20:32:41.942Z,49.70
2023-05-20T20:35:09.598Z,49.80
2023-05-20T20:37:37.858Z,49.70
2023-05-20T20:40:08.181Z,49.80
2023-05-20T20:42:35.298Z,49.80
2023-05-20T20:45:04.430Z,49.80
2023-05-20T20:47:31.576Z,49.80
2023-05-20T20:49:58.768Z,49.80
2023-05-20T20:52:25.862Z,49.90
2023-05-20T20:54:53.380Z,49.90
2023-05-20T20:57:22.114Z,49.90
2023-05-20T20:59:51.314Z,49.90
2023-05-20T21:02:19.716Z,50.00
2023-05-20T21:04:47.473Z,50.00
2023-05-20T21:07:18.347Z,50.00
2023-05-20T21:09:46.492Z,50.00
2023-05-20T21:12:13.546Z,50.00
2023-05-20T21:14:40.716Z,50.00
2023-05-20T21:17:07.795Z,50.00
2023-05-20T21:19:38.599Z,50.00
2023-05-20T21:22:05.893Z,50.00
2023-05-20T21:24:35.311Z,50.00
2023-05-20T21:27:03.031Z,50.10
2023-05-20T21:29:31.461Z,50.10
2023-05-20T21:31:58.514Z,50.10
2023-05-20T21:34:25.610Z,50.10
2023-05-20T21:36:52.702Z,50.10
2023-05-20T21:39:19.809Z,50.20
2023-05-20T21:41:46.921Z,50.20
2023-05-20T21:44:14.075Z,50.20
2023-05-20T21:46:41.447Z,50.30
2023-05-20T21:49:08.552Z,50.30
2023-05-20T21:51:36.070Z,50.30
2023-05-20T21:54:03.193Z,50.40
2023-05-20T21:56:30.276Z,50.40
2023-05-20T21:58:57.313Z,50.40
2023-05-20T22:01:24.487Z,50.40
2023-05-20T22:03:51.823Z,50.50
2023-05-20T22:06:21.530Z,50.50
2023-05-20T22:08:49.193Z,50.60
2023-05-20T22:11:16.210Z,50.60
2023-05-20T22:13:43.356Z,50.60
2023-05-20T22:16:11.346Z,50.60
2023-05-20T22:18:38.692Z,50.60
2023-05-20T22:21:06.540Z,50.70
2023-05-20T22:23:33.591Z,50.70
2023-05-20T22:26:00.735Z,50.70
2023-05-20T22:28:27.742Z,50.70
2023-05-20T22:30:54.899Z,50.70
2023-05-20T22:33:23.081Z,50.80
2023-05-20T22:35:51.438Z,50.80
2023-05-20T22:38:18.551Z,50.80
2023-05-20T22:40:45.945Z,50.80
2023-05-20T22:43:13.324Z,50.80
2023-05-20T22:45:40.938Z,50.90
2023-05-20T22:48:08.124Z,50.90
2023-05-20T22:50:35.488Z,50.90
2023-05-20T22:53:03.072Z,50.90
2023-05-20T22:55:30.193Z,50.90
2023-05-20T22:57:57.947Z,51.00
2023-05-20T23:00:25.079Z,50.90
2023-05-20T23:02:52.548Z,51.00
2023-05-20T23:05:19.833Z,51.00
2023-05-20T23:07:47.208Z,51.00
2023-05-20T23:10:14.283Z,51.00
2023-05-20T23:12:41.370Z,51.00
2023-05-20T23:15:09.288Z,51.10
2023-05-20T23:17:36.657Z,51.10
2023-05-20T23:20:11.221Z,51.10
2023-05-20T23:22:38.961Z,51.20
2023-05-20T23:25:06.384Z,51.20
2023-05-20T23:27:33.918Z,51.20
2023-05-20T23:30:00.993Z,51.20
2023-05-20T23:32:28.055Z,51.20
2023-05-20T23:34:55.469Z,51.20
2023-05-20T23:37:22.605Z,51.30
2023-05-20T23:39:49.816Z,51.20
2023-05-20T23:42:16.922Z,51.20
2023-05-20T23:44:43.942Z,51.20
2023-05-20T23:47:13.682Z,51.20
2023-05-20T23:49:41.697Z,51.20
2023-05-20T23:52:08.865Z,51.20
2023-05-20T23:54:36.019Z,51.20
2023-05-20T23:57:03.273Z,51.20
2023-05-20T23:59:30.349Z,51.20
